createdAt,value
2018-09-18T00:02:15.999Z,8.47
2018-09-18T00:04:43.785Z,9.57
2018-09-18T00:07:11.593Z,9.53
2018-09-18T00:09:39.351Z,9.30
2018-09-18T00:12:07.167Z,9.50
2018-09-18T00:14:34.951Z,9.23
2018-09-18T00:17:02.748Z,9.27
2018-09-18T00:19:30.530Z,9.07
2018-09-18T00:21:58.297Z,9.37
2018-09-18T00:24:26.125Z,8.90
2018-09-18T00:26:53.946Z,9.00
2018-09-18T00:29:22.112Z,9.17
2018-09-18T00:31:49.964Z,8.63
2018-09-18T00:34:17.740Z,8.10
2018-09-18T00:36:45.541Z,8.90
2018-09-18T00:39:13.353Z,9.43
2018-09-18T00:41:41.133Z,9.10
2018-09-18T00:44:08.917Z,8.87
2018-09-18T00:46:36.695Z,9.10
2018-09-18T00:49:04.510Z,8.87
2018-09-18T00:51:32.273Z,9.33
2018-09-18T00:54:00.038Z,9.60
2018-09-18T00:56:27.828Z,9.43
2018-09-18T00:58:55.749Z,8.73
2018-09-18T01:01:23.647Z,8.17
2018-09-18T01:03:52.452Z,9.27
2018-09-18T01:06:20.333Z,9.23
2018-09-18T01:08:48.261Z,8.70
2018-09-18T01:11:16.038Z,9.57
2018-09-18T01:13:43.796Z,9.43
2018-09-18T01:16:11.581Z,9.10
2018-09-18T01:18:40.685Z,9.50
2018-09-18T01:21:09.116Z,8.93
2018-09-18T01:23:37.105Z,8.70
2018-09-18T01:26:04.976Z,8.80
2018-09-18T01:28:33.226Z,9.23
2018-09-18T01:31:01.029Z,9.37
2018-09-18T01:33:28.909Z,8.50
2018-09-18T01:35:56.796Z,8.30
2018-09-18T01:38:24.844Z,8.73
2018-09-18T01:40:53.045Z,9.37
2018-09-18T01:43:21.249Z,8.50
2018-09-18T01:45:49.559Z,8.30
2018-09-18T01:48:17.666Z,8.63
2018-09-18T01:50:45.517Z,8.90
2018-09-18T01:53:13.400Z,9.33
2018-09-18T01:55:41.247Z,8.87
2018-09-18T01:58:09.080Z,8.70
2018-09-18T02:00:36.962Z,9.10
2018-09-18T02:03:04.833Z,9.50
2018-09-18T02:05:32.642Z,9.03
2018-09-18T02:08:00.670Z,9.33
2018-09-18T02:10:28.488Z,9.37
2018-09-18T02:12:56.632Z,9.23
2018-09-18T02:15:24.428Z,9.33
2018-09-18T02:17:52.321Z,8.83
2018-09-18T02:20:20.240Z,8.60
2018-09-18T02:22:48.072Z,9.00
2018-09-18T02:25:15.926Z,8.97
2018-09-18T02:27:43.697Z,9.13
2018-09-18T02:30:11.532Z,9.70
2018-09-18T02:32:39.292Z,8.77
2018-09-18T02:35:07.054Z,8.93
2018-09-18T02:37:34.834Z,9.27
2018-09-18T02:40:03.489Z,9.07
2018-09-18T02:42:31.446Z,9.27
2018-09-18T02:44:59.228Z,8.60
2018-09-18T02:47:27.096Z,9.00
2018-09-18T02:49:54.869Z,8.80
2018-09-18T02:52:22.775Z,9.20
2018-09-18T02:54:50.612Z,8.40
2018-09-18T02:57:18.410Z,8.80
2018-09-18T02:59:46.177Z,8.57
2018-09-18T03:02:13.988Z,8.70
2018-09-18T03:04:42.653Z,8.63
2018-09-18T03:07:10.456Z,8.60
2018-09-18T03:09:38.204Z,8.07
2018-09-18T03:12:06.003Z,8.93
2018-09-18T03:14:33.781Z,9.37
2018-09-18T03:17:01.522Z,9.17
2018-09-18T03:19:29.345Z,8.60
2018-09-18T03:21:57.240Z,8.80
2018-09-18T03:24:25.027Z,9.07
2018-09-18T03:26:52.929Z,9.00
2018-09-18T03:29:20.825Z,8.53
2018-09-18T03:31:48.632Z,8.50
2018-09-18T03:34:16.410Z,8.53
2018-09-18T03:36:44.189Z,8.30
2018-09-18T03:39:11.999Z,8.73
2018-09-18T03:41:39.765Z,8.60
2018-09-18T03:44:07.585Z,8.67
2018-09-18T03:46:35.389Z,8.37
2018-09-18T03:49:03.200Z,8.17
2018-09-18T03:51:30.977Z,9.03
2018-09-18T03:53:58.813Z,9.80
2018-09-18T03:56:26.579Z,8.73
2018-09-18T03:58:54.525Z,9.10
2018-09-18T04:01:22.567Z,9.53
2018-09-18T04:03:53.951Z,9.37
2018-09-18T04:06:23.001Z,8.90
2018-09-18T04:08:51.075Z,8.43
2018-09-18T04:11:18.889Z,9.20
2018-09-18T04:13:46.740Z,9.60
2018-09-18T04:16:14.532Z,8.60
2018-09-18T04:18:42.292Z,9.00
2018-09-18T04:21:10.098Z,9.20
2018-09-18T04:23:37.889Z,9.57
2018-09-18T04:26:05.873Z,8.20
2018-09-18T04:28:33.713Z,9.63
2018-09-18T04:31:01.517Z,9.40
2018-09-18T04:33:29.349Z,10.10
2018-09-18T04:35:57.157Z,9.53
2018-09-18T04:38:25.003Z,9.10
2018-09-18T04:40:53.005Z,9.23
2018-09-18T04:43:21.040Z,8.97
2018-09-18T04:45:48.817Z,8.97
2018-09-18T04:48:16.589Z,9.10
2018-09-18T04:50:44.487Z,9.67
2018-09-18T04:53:12.257Z,8.97
2018-09-18T04:55:40.860Z,9.53
2018-09-18T04:58:08.707Z,8.67
2018-09-18T05:00:36.846Z,8.90
2018-09-18T05:03:05.069Z,8.97
2018-09-18T05:05:32.821Z,9.17
2018-09-18T05:08:00.687Z,9.13
2018-09-18T05:10:28.509Z,8.87
2018-09-18T05:12:56.329Z,9.23
2018-09-18T05:15:24.109Z,8.90
2018-09-18T05:17:51.954Z,8.87
2018-09-18T05:20:19.814Z,8.63
2018-09-18T05:22:47.586Z,8.70
2018-09-18T05:25:15.388Z,8.83
2018-09-18T05:27:43.177Z,9.33
2018-09-18T05:30:10.924Z,9.53
2018-09-18T05:32:38.688Z,9.43
2018-09-18T05:35:06.517Z,9.00
2018-09-18T05:37:34.285Z,9.00
2018-09-18T05:40:02.052Z,9.10
2018-09-18T05:42:29.942Z,8.80
2018-09-18T05:44:57.832Z,8.50
2018-09-18T05:47:25.607Z,8.20
2018-09-18T05:49:53.581Z,8.40
2018-09-18T05:52:21.496Z,7.83
2018-09-18T05:54:49.326Z,8.50
2018-09-18T05:57:17.182Z,8.07
2018-09-18T05:59:44.977Z,7.93
2018-09-18T06:02:12.745Z,7.90
2018-09-18T06:04:40.936Z,7.53
2018-09-18T06:07:08.769Z,7.60
2018-09-18T06:09:36.544Z,8.03
2018-09-18T06:12:04.345Z,7.23
2018-09-18T06:14:32.177Z,7.80
2018-09-18T06:16:59.946Z,7.10
2018-09-18T06:19:27.809Z,6.87
2018-09-18T06:21:55.545Z,7.23
2018-09-18T06:24:23.351Z,6.93
2018-09-18T06:26:51.216Z,7.10
2018-09-18T06:29:18.973Z,6.87
2018-09-18T06:31:46.759Z,7.10
2018-09-18T06:34:14.524Z,6.90
2018-09-18T06:36:42.296Z,6.60
2018-09-18T06:39:11.115Z,6.90
2018-09-18T06:41:39.256Z,6.80
2018-09-18T06:44:07.149Z,7.10
2018-09-18T06:46:34.906Z,6.83
2018-09-18T06:49:02.712Z,7.30
2018-09-18T06:51:30.637Z,6.73
2018-09-18T06:53:58.453Z,7.03
2018-09-18T06:56:26.265Z,6.57
2018-09-18T06:58:54.092Z,6.47
2018-09-18T07:01:22.002Z,6.87
2018-09-18T07:03:50.895Z,6.80
2018-09-18T07:06:18.745Z,6.47
2018-09-18T07:08:46.548Z,6.53
2018-09-18T07:11:14.296Z,6.40
2018-09-18T07:13:42.086Z,6.33
2018-09-18T07:16:09.868Z,6.13
2018-09-18T07:18:37.643Z,6.00
2018-09-18T07:21:05.605Z,6.27
2018-09-18T07:23:33.438Z,6.80
2018-09-18T07:26:01.325Z,6.13
2018-09-18T07:28:29.113Z,6.63
2018-09-18T07:30:56.946Z,6.47
2018-09-18T07:33:24.761Z,6.10
2018-09-18T07:35:52.633Z,5.93
2018-09-18T07:38:20.444Z,6.23
2018-09-18T07:40:48.260Z,6.50
2018-09-18T07:43:16.137Z,6.83
2018-09-18T07:45:44.101Z,6.57
2018-09-18T07:48:12.093Z,6.63
2018-09-18T07:50:40.164Z,6.30
2018-09-18T07:53:07.984Z,5.80
2018-09-18T07:55:36.547Z,6.47
2018-09-18T07:58:04.337Z,6.23
2018-09-18T08:00:32.173Z,6.00
2018-09-18T08:02:59.981Z,7.30
2018-09-18T08:05:27.777Z,7.10
2018-09-18T08:07:55.620Z,6.40
2018-09-18T08:10:23.472Z,6.40
2018-09-18T08:12:51.393Z,6.77
2018-09-18T08:15:19.217Z,6.67
2018-09-18T08:17:47.005Z,6.67
2018-09-18T08:20:14.773Z,7.17
2018-09-18T08:22:42.578Z,7.00
2018-09-18T08:25:10.383Z,7.53
2018-09-18T08:27:38.161Z,7.63
2018-09-18T08:30:05.977Z,7.27
2018-09-18T08:32:33.809Z,7.40
2018-09-18T08:35:01.583Z,7.33
2018-09-18T08:37:29.389Z,7.77
2018-09-18T08:39:57.295Z,6.93
2018-09-18T08:42:25.420Z,5.93
2018-09-18T08:44:53.332Z,6.17
2018-09-18T08:47:21.164Z,6.70
2018-09-18T08:49:48.941Z,7.03
2018-09-18T08:52:16.729Z,6.47
2018-09-18T08:54:44.524Z,6.35
2018-09-18T08:57:12.367Z,6.55
2018-09-18T08:59:40.157Z,6.67
2018-09-18T09:02:07.949Z,6.95
2018-09-18T09:04:35.787Z,6.85
2018-09-18T09:07:03.613Z,7.65
2018-09-18T09:09:31.439Z,7.92
2018-09-18T09:11:59.188Z,7.10
2018-09-18T09:14:27.083Z,7.62
2018-09-18T09:16:57.076Z,7.85
2018-09-18T09:19:24.950Z,8.18
2018-09-18T09:21:53.081Z,6.97
2018-09-18T09:24:20.653Z,7.53
2018-09-18T09:26:48.514Z,6.50
2018-09-18T09:29:16.297Z,7.08
2018-09-18T09:31:44.074Z,7.10
2018-09-18T09:34:11.854Z,7.60
2018-09-18T09:36:39.642Z,7.10
2018-09-18T09:39:09.413Z,7.10
2018-09-18T09:41:37.190Z,7.53
2018-09-18T09:44:05.040Z,7.22
2018-09-18T09:46:32.869Z,6.90
2018-09-18T09:49:00.653Z,6.70
2018-09-18T09:51:28.487Z,8.30
2018-09-18T09:53:56.296Z,7.30
2018-09-18T09:56:24.237Z,6.62
2018-09-18T09:58:52.085Z,6.20
2018-09-18T10:01:25.394Z,8.78
2018-09-18T10:03:53.413Z,9.05
2018-09-18T10:06:21.203Z,8.78
2018-09-18T10:08:48.957Z,8.60
2018-09-18T10:11:16.835Z,9.90
2018-09-18T10:13:44.619Z,9.68
2018-09-18T10:16:12.447Z,9.03
2018-09-18T10:18:40.201Z,9.55
2018-09-18T10:21:08.005Z,9.08
2018-09-18T10:23:35.817Z,9.78
2018-09-18T10:26:03.597Z,9.30
2018-09-18T10:28:31.424Z,12.75
2018-09-18T10:30:59.188Z,10.55
2018-09-18T10:33:27.000Z,9.73
2018-09-18T10:35:54.939Z,10.18
2018-09-18T10:38:22.931Z,9.85
2018-09-18T10:40:50.864Z,9.20
2018-09-18T10:43:18.605Z,10.28
2018-09-18T10:45:46.456Z,10.20
2018-09-18T10:48:14.206Z,10.70
2018-09-18T10:50:42.008Z,10.05
2018-09-18T10:53:09.781Z,10.68
2018-09-18T10:55:37.612Z,10.08
2018-09-18T10:58:05.964Z,11.83
2018-09-18T11:00:33.763Z,10.58
2018-09-18T11:03:03.159Z,11.15
2018-09-18T11:05:30.966Z,11.95
2018-09-18T11:07:58.834Z,11.80
2018-09-18T11:10:26.772Z,11.70
2018-09-18T11:12:54.608Z,11.83
2018-09-18T11:15:22.460Z,12.68
2018-09-18T11:17:51.480Z,11.78
2018-09-18T11:20:19.770Z,11.55
2018-09-18T11:22:47.527Z,12.10
2018-09-18T11:25:15.383Z,12.58
2018-09-18T11:27:43.251Z,11.20
2018-09-18T11:30:11.038Z,11.43
2018-09-18T11:32:38.971Z,11.60
2018-09-18T11:35:06.738Z,10.32
2018-09-18T11:37:34.525Z,10.72
2018-09-18T11:40:02.317Z,10.45
2018-09-18T11:42:30.133Z,10.88
2018-09-18T11:44:57.920Z,10.48
2018-09-18T11:47:25.710Z,10.43
2018-09-18T11:49:53.614Z,10.20
2018-09-18T11:52:21.372Z,10.32
2018-09-18T11:54:49.193Z,9.58
2018-09-18T11:57:17.042Z,8.78
2018-09-18T11:59:44.765Z,8.28
2018-09-18T12:02:12.650Z,8.10
2018-09-18T12:04:40.492Z,8.65
2018-09-18T12:07:08.208Z,8.58
2018-09-18T12:09:36.004Z,7.87
2018-09-18T12:12:03.796Z,7.90
2018-09-18T12:14:31.581Z,7.10
2018-09-18T12:16:59.471Z,7.70
2018-09-18T12:19:27.343Z,7.70
2018-09-18T12:21:55.237Z,7.28
2018-09-18T12:24:23.206Z,7.62
2018-09-18T12:26:50.999Z,7.67
2018-09-18T12:29:18.776Z,7.47
2018-09-18T12:31:46.594Z,7.90
2018-09-18T12:34:14.385Z,7.30
2018-09-18T12:36:42.832Z,7.50
2018-09-18T12:39:10.645Z,7.50
2018-09-18T12:41:39.202Z,7.70
2018-09-18T12:44:07.233Z,7.73
2018-09-18T12:46:35.073Z,7.60
2018-09-18T12:49:02.912Z,8.30
2018-09-18T12:51:30.649Z,8.30
2018-09-18T12:53:58.564Z,8.03
2018-09-18T12:56:26.479Z,7.57
2018-09-18T12:58:54.301Z,7.80
2018-09-18T13:01:22.121Z,8.17
2018-09-18T13:03:51.228Z,8.10
2018-09-18T13:06:19.120Z,8.83
2018-09-18T13:08:46.825Z,8.13
2018-09-18T13:11:14.584Z,8.00
2018-09-18T13:13:42.390Z,8.43
2018-09-18T13:16:10.183Z,7.55
2018-09-18T13:18:37.965Z,8.23
2018-09-18T13:21:05.855Z,8.03
2018-09-18T13:23:33.638Z,8.13
2018-09-18T13:26:01.457Z,8.38
2018-09-18T13:28:29.255Z,8.13
2018-09-18T13:30:57.145Z,7.50
2018-09-18T13:33:25.018Z,7.10
2018-09-18T13:35:52.855Z,8.08
2018-09-18T13:38:20.681Z,7.45
2018-09-18T13:40:48.529Z,7.62
2018-09-18T13:43:16.305Z,8.13
2018-09-18T13:45:44.133Z,7.62
2018-09-18T13:48:11.887Z,7.58
2018-09-18T13:50:39.671Z,7.60
2018-09-18T13:53:07.588Z,8.10
2018-09-18T13:55:35.429Z,6.62
2018-09-18T13:58:03.393Z,7.33
2018-09-18T14:00:31.252Z,6.55
2018-09-18T14:02:59.122Z,6.75
2018-09-18T14:05:30.461Z,6.97
2018-09-18T14:07:58.207Z,6.95
2018-09-18T14:10:26.114Z,6.67
2018-09-18T14:12:53.885Z,6.87
2018-09-18T14:15:21.698Z,7.03
2018-09-18T14:17:49.477Z,6.83
2018-09-18T14:20:17.280Z,6.60
2018-09-18T14:22:45.092Z,6.35
2018-09-18T14:25:12.899Z,6.75
2018-09-18T14:27:40.705Z,6.75
2018-09-18T14:30:08.482Z,6.67
2018-09-18T14:32:36.252Z,6.40
2018-09-18T14:35:04.072Z,6.83
2018-09-18T14:37:31.865Z,6.72
2018-09-18T14:39:59.993Z,6.55
2018-09-18T14:42:28.101Z,6.45
2018-09-18T14:44:56.041Z,6.62
2018-09-18T14:47:23.828Z,6.55
2018-09-18T14:49:51.704Z,6.95
2018-09-18T14:52:19.493Z,7.00
2018-09-18T14:54:47.298Z,7.08
2018-09-18T14:57:15.124Z,6.90
2018-09-18T14:59:43.038Z,7.08
2018-09-18T15:02:10.867Z,6.97
2018-09-18T15:04:38.982Z,6.70
2018-09-18T15:07:07.515Z,7.17
2018-09-18T15:09:35.354Z,6.60
2018-09-18T15:12:03.264Z,6.72
2018-09-18T15:14:31.065Z,6.85
2018-09-18T15:16:58.922Z,6.20
2018-09-18T15:19:27.250Z,7.12
2018-09-18T15:21:55.171Z,6.20
2018-09-18T15:24:23.011Z,6.28
2018-09-18T15:26:53.061Z,6.90
2018-09-18T15:29:20.908Z,6.75
2018-09-18T15:31:48.798Z,6.50
2018-09-18T15:34:16.598Z,6.55
2018-09-18T15:36:44.473Z,6.62
2018-09-18T15:39:12.237Z,7.00
2018-09-18T15:41:39.997Z,6.95
2018-09-18T15:44:08.051Z,6.78
2018-09-18T15:46:36.156Z,7.15
2018-09-18T15:49:04.117Z,6.62
2018-09-18T15:51:32.121Z,7.67
2018-09-18T15:53:59.913Z,7.12
2018-09-18T15:56:27.789Z,7.15
2018-09-18T15:58:55.745Z,7.05
2018-09-18T16:01:23.552Z,7.65
2018-09-18T16:03:51.493Z,6.95
2018-09-18T16:06:19.322Z,7.25
2018-09-18T16:08:47.103Z,7.40
2018-09-18T16:11:14.901Z,7.37
2018-09-18T16:13:42.716Z,8.08
2018-09-18T16:16:10.626Z,7.67
2018-09-18T16:18:38.413Z,7.17
2018-09-18T16:21:06.216Z,7.20
2018-09-18T16:26:02.080Z,7.40
2018-09-18T16:28:30.017Z,6.90
2018-09-18T16:30:57.935Z,6.75
2018-09-18T16:33:26.149Z,6.83
2018-09-18T16:35:53.925Z,6.90
2018-09-18T16:38:21.868Z,6.55
2018-09-18T16:40:50.174Z,6.70
2018-09-18T16:43:17.933Z,7.07
2018-09-18T16:45:45.833Z,7.10
2018-09-18T16:48:13.677Z,6.83
2018-09-18T16:50:41.487Z,7.57
2018-09-18T16:53:09.326Z,6.57
2018-09-18T16:55:37.102Z,7.47
2018-09-18T16:58:04.912Z,6.23
2018-09-18T17:00:32.788Z,7.33
2018-09-18T17:03:00.554Z,7.13
2018-09-18T17:05:28.453Z,7.23
2018-09-18T17:07:56.411Z,7.30
2018-09-18T17:10:24.250Z,7.60
2018-09-18T17:12:52.010Z,7.00
2018-09-18T17:15:19.899Z,7.17
2018-09-18T17:17:47.685Z,7.50
2018-09-18T17:20:15.474Z,8.20
2018-09-18T17:22:43.351Z,8.17
2018-09-18T17:25:11.193Z,7.40
2018-09-18T17:27:38.982Z,7.33
2018-09-18T17:30:06.827Z,7.70
2018-09-18T17:32:34.634Z,7.07
2018-09-18T17:35:02.460Z,6.93
2018-09-18T17:37:30.316Z,6.60
2018-09-18T17:39:58.428Z,7.30
2018-09-18T17:42:26.267Z,6.87
2018-09-18T17:44:54.064Z,7.10
2018-09-18T17:47:22.019Z,6.57
2018-09-18T17:49:49.738Z,5.83
2018-09-18T17:52:17.498Z,6.50
2018-09-18T17:54:45.346Z,6.63
2018-09-18T17:57:13.186Z,7.13
2018-09-18T17:59:41.091Z,7.20
2018-09-18T18:02:09.339Z,7.27
2018-09-18T18:04:37.323Z,6.77
2018-09-18T18:07:05.317Z,6.33
2018-09-18T18:09:33.116Z,6.50
2018-09-18T18:12:00.976Z,6.13
2018-09-18T18:14:28.881Z,6.33
2018-09-18T18:16:56.814Z,6.07
2018-09-18T18:19:24.653Z,6.50
2018-09-18T18:21:52.438Z,5.83
2018-09-18T18:24:20.243Z,5.80
2018-09-18T18:26:48.064Z,5.70
2018-09-18T18:29:15.888Z,5.50
2018-09-18T18:31:43.744Z,5.63
2018-09-18T18:34:11.558Z,5.93
2018-09-18T18:36:39.625Z,5.83
2018-09-18T18:39:08.024Z,5.30
2018-09-18T18:41:35.949Z,5.53
2018-09-18T18:44:03.673Z,5.03
2018-09-18T18:46:31.501Z,5.47
2018-09-18T18:48:59.432Z,5.23
2018-09-18T18:51:27.381Z,5.57
2018-09-18T18:53:55.148Z,5.53
2018-09-18T18:56:22.935Z,5.97
2018-09-18T18:58:50.758Z,5.20
2018-09-18T19:01:18.583Z,5.97
2018-09-18T19:03:47.434Z,5.90
2018-09-18T19:06:15.238Z,6.53
2018-09-18T19:08:43.061Z,5.80
2018-09-18T19:11:10.856Z,5.47
2018-09-18T19:13:38.631Z,5.20
2018-09-18T19:16:06.425Z,5.30
2018-09-18T19:18:34.304Z,5.00
2018-09-18T19:21:02.071Z,5.40
2018-09-18T19:23:30.009Z,5.53
2018-09-18T19:25:57.921Z,5.73
2018-09-18T19:28:25.684Z,6.07
2018-09-18T19:30:53.584Z,5.23
2018-09-18T19:33:21.465Z,5.63
2018-09-18T19:35:49.265Z,5.50
2018-09-18T19:38:17.108Z,5.47
2018-09-18T19:40:45.029Z,5.37
2018-09-18T19:43:12.903Z,5.80
2018-09-18T19:45:40.765Z,5.57
2018-09-18T19:48:08.650Z,5.57
2018-09-18T19:50:36.649Z,5.00
2018-09-18T19:53:04.514Z,5.10
2018-09-18T19:55:32.486Z,4.90
2018-09-18T19:58:00.289Z,5.37
2018-09-18T20:00:28.146Z,5.10
2018-09-18T20:02:55.990Z,5.30
2018-09-18T20:05:23.822Z,5.33
2018-09-18T20:07:51.619Z,4.90
2018-09-18T20:10:19.401Z,5.57
2018-09-18T20:12:47.315Z,5.90
2018-09-18T20:15:15.133Z,5.73
2018-09-18T20:17:43.102Z,5.37
2018-09-18T20:20:10.900Z,5.70
2018-09-18T20:22:38.701Z,5.40
2018-09-18T20:25:06.550Z,5.83
2018-09-18T20:27:34.378Z,5.70
2018-09-18T20:30:02.239Z,5.23
2018-09-18T20:32:30.234Z,5.30
2018-09-18T20:34:58.082Z,4.93
2018-09-18T20:37:25.864Z,4.83
2018-09-18T20:39:53.765Z,4.87
2018-09-18T20:42:21.663Z,5.17
2018-09-18T20:44:49.778Z,5.47
2018-09-18T20:47:19.382Z,5.30
2018-09-18T20:50:03.816Z,5.43
2018-09-18T20:52:33.052Z,5.63
2018-09-18T20:55:02.288Z,5.83
2018-09-18T20:57:30.229Z,5.67
2018-09-18T20:59:58.095Z,5.73
2018-09-18T21:02:26.047Z,5.60
2018-09-18T21:04:53.923Z,5.50
2018-09-18T21:07:21.797Z,5.90
2018-09-18T21:09:49.633Z,9.97
2018-09-18T21:12:17.501Z,9.43
2018-09-18T21:14:45.328Z,5.73
2018-09-18T21:17:13.153Z,5.30
2018-09-18T21:19:41.017Z,5.97
2018-09-18T21:22:09.989Z,5.77
2018-09-18T21:24:38.457Z,5.90
2018-09-18T21:27:06.577Z,5.40
2018-09-18T21:29:34.356Z,5.50
2018-09-18T21:32:02.149Z,5.90
2018-09-18T21:34:30.008Z,5.37
2018-09-18T21:36:57.948Z,6.33
2018-09-18T21:39:25.784Z,7.37
2018-09-18T21:41:53.576Z,7.40
2018-09-18T21:44:22.229Z,7.10
2018-09-18T21:46:50.065Z,6.77
2018-09-18T21:49:17.873Z,5.77
2018-09-18T21:51:45.612Z,5.73
2018-09-18T21:54:13.404Z,6.13
2018-09-18T21:56:41.174Z,6.53
2018-09-18T21:59:09.023Z,6.83
2018-09-18T22:01:52.013Z,6.70
2018-09-18T22:04:20.000Z,7.20
2018-09-18T22:06:47.794Z,7.20
2018-09-18T22:09:15.715Z,6.90
2018-09-18T22:11:43.545Z,6.73
2018-09-18T22:14:16.322Z,7.10
2018-09-18T22:16:44.155Z,7.83
2018-09-18T22:19:11.913Z,7.07
2018-09-18T22:21:39.699Z,7.43
2018-09-18T22:24:07.469Z,7.57
2018-09-18T22:26:35.245Z,7.60
2018-09-18T22:29:05.321Z,7.63
2018-09-18T22:31:33.148Z,7.43
2018-09-18T22:34:01.108Z,7.23
2018-09-18T22:36:28.946Z,7.87
2018-09-18T22:38:56.940Z,8.30
2018-09-18T22:41:24.764Z,7.87
2018-09-18T22:43:52.589Z,8.17
2018-09-18T22:46:20.389Z,8.10
2018-09-18T22:48:48.165Z,8.60
2018-09-18T22:51:16.135Z,7.87
2018-09-18T22:53:43.921Z,8.17
2018-09-18T22:56:11.712Z,8.40
2018-09-18T22:58:39.662Z,7.83
2018-09-18T23:01:08.058Z,7.60
2018-09-18T23:03:36.057Z,6.97
2018-09-18T23:06:03.848Z,8.03
2018-09-18T23:08:31.771Z,7.30
2018-09-18T23:10:59.712Z,7.33
2018-09-18T23:13:27.493Z,7.33
2018-09-18T23:15:55.370Z,7.43
2018-09-18T23:18:23.150Z,7.33
2018-09-18T23:20:50.929Z,7.13
2018-09-18T23:23:18.780Z,7.27
2018-09-18T23:25:46.573Z,7.93
2018-09-18T23:28:14.658Z,7.13
2018-09-18T23:30:42.440Z,6.77
2018-09-18T23:33:10.266Z,7.43
2018-09-18T23:35:38.044Z,8.10
2018-09-18T23:38:05.824Z,7.43
2018-09-18T23:40:33.593Z,8.33
2018-09-18T23:43:01.604Z,8.07
2018-09-18T23:45:32.801Z,8.43
2018-09-18T23:48:01.852Z,7.63
2018-09-18T23:50:29.746Z,8.07
2018-09-18T23:52:57.572Z,8.20
2018-09-18T23:55:25.428Z,8.23
2018-09-18T23:57:53.190Z,7.37
